TLPC

Details ICAO TLPC (SLU)
Name George F. L. Charles Airport
Region Saint Lucia
Timezone America/St_Lucia (UTC-4.0)
Plans Departing 81
Arriving 107
Stats Elevation 21 ft / 6 m (AMSL)
Location 14.020000° -60.992900°
Runways 1
Magnetic Variation 15.118° W
Sunrise 2019-04-24 09:46:44 UTC / 2019-04-24 05:46:44 Local
Sunset 2019-04-24 22:19:49 UTC / 2019-04-24 18:19:49 Local
Advertisement - Login to hide

Runways

ID Width Length Bearing (true/mag) Surface Threshold Overrun Markings Lighting
09 148 ft / 45 m 6,233 ft / 1,900 m 74.85° / 89.97° ASPHALT 423 ft / 129 m 0 ft / 0 m APP EDGE THRESHOLD
27 148 ft / 45 m 6,233 ft / 1,900 m 254.85° / 269.97° ASPHALT 866 ft / 264 m 0 ft / 0 m APP EDGE THRESHOLD

Map

Weather


0- 5 10 15 20 25 30 35+ Temperature / °C

Clouds and Precipitation
Forecast for 2019-04-24 12:00 UTC. Updated 5 hours ago

Ground ~20,000 ft ~40,000 ft Winds

METAR

TLPC 241500Z 08006KT 9999 BKN023 SCT038 28/24 Q1015 NOSIG

TAF

TAF TLPC 241100Z 2412/2512 09008KT 9999 SCT024 TEMPO 2412/2512 5000 SHRA SCT015TCU BKN040

Frequencies

Ground 121.90 MHz Castries Ground Control
Approach 119.80 MHz Castries Approach
Tower 118.00 MHz Castries Tower
Warning: Do not use this data for real-world aviation or navigation. No guarantee of current accuracy is given.